SABESARE

Guest
Details From SABE - Aeroparque Jorge Newbery
To SARE - RESISTENCIA
Flight Number -
Tags decoded
Created
Modified
Stats Distance 429 nm / 794 km
Max Altitude 0 ft / 0 m
Waypoints 5
Social Downloads 1
Likes 0
Share VATSIM

Download

Looking for another format? Having issues loading an existing format? Contact us
Advertisement - Login to hide

Notes

Requested: SABE LANDA GUA DAMIS SARE

Route

SABE LANDA GUA DAMIS SARE

ID Type Via Altitude Latitude Longitude Leg Dist Tot Dist Heading (true) Name
O SABE APT - 0 ft / 0 m -34.55941˚ -58.41575˚ - 0 nm - Aeroparque Jorge Newbery
LANDA FIX - 0 ft / 0 m -33.90806˚ -58.57528˚ 39 nm 39 nm 349° / 349° -
GUA VOR - 0 ft / 0 m -33.00972˚ -58.61417˚ 53 nm 93 nm 358° / 358° GUALEGUAYCHU VOR-DME
DAMIS FIX - 0 ft / 0 m -28.86056˚ -58.94917˚ 249 nm 343 nm 356° / 356° -
O SARE APT - 0 ft / 0 m -27.44999˚ -59.05613˚ 84 nm 428 nm 356° / 356° RESISTENCIA

Altitude Profile

Advertisement - Login to hide

Weather


0- 5 10 15 20 25 30 35+ Temperature / ° C

Clouds and Precipitation
Forecast for 2018-05-27 00:00 UTC. Updated 3 hours ago

Ground ~20,000 ft ~40,000 ft Winds

SABE

Details ICAO SABE (AEP)
Name Aeroparque Jorge Newbery
Region Argentina
Timezone Unknown (UTC+0.0)
Stats Elevation 17 ft / 5 m (AMSL)
Location -34.559414° -58.415749°
Runways 1
Magnetic Variation 9.055° W

METAR

SABE 270200Z VRB02KT CAVOK 17/14 Q1016 NOSIG

Decode

TAF

TAF SABE 262300Z 2700/2724 09005KT CAVOK TX21/2719Z TN14/2710Z BECMG 2703/2705 02005KT 9999 BKN025 BECMG 2716/2718 09010KT 9999 SCT020 BKN200

Decode

Departure Runways

ID Width Length Bearing (true) Bearing (mag) Surface Threshold Offset Overrun Length
13 131 ft / 40 m 6,882 ft / 2,098 m 123.87° 132.92° Concrete 0 ft / 0 m 791 ft / 241 m
31 131 ft / 40 m 6,882 ft / 2,098 m 303.86° 312.91° Concrete 991 ft / 302 m 0 ft / 0 m

SARE

Details ICAO SARE (RES)
Name RESISTENCIA
Region Argentina
Timezone America/Argentina/Cordoba (UTC-3.0)
Stats Elevation 173 ft / 53 m (AMSL)
Location -27.449986° -59.056125°
Runways 1
Magnetic Variation 12.132° W

METAR

SARE 270200Z 06006KT CAVOK 19/17 Q1013

Decode

TAF

TAF SARE 262300Z 2700/2724 07010KT CAVOK TX28/2718Z TN12/2710Z BECMG 2705/2707 VRB03KT 4000 BR PROB40 2708/2711 0800 BCFG TEMPO 2714/2721 7000 FEW030 BECMG 2721/2723 CAVOK

Decode

Destination Runways

ID Width Length Bearing (true) Bearing (mag) Surface Threshold Offset Overrun Length
03 147 ft / 45 m 9,126 ft / 2,782 m 20.81° 32.94° Asphalt 0 ft / 0 m 115 ft / 35 m
21 147 ft / 45 m 9,126 ft / 2,782 m 200.81° 212.94° Asphalt 0 ft / 0 m 115 ft / 35 m

Approach Navaids

Runway Type Ident Frequency Range Bearing (true) Bearing (mag) Slope Elevation
21 Localiser RS 110.30 MHz 18 nm / 33 km 200.74° 212.87° - 174 ft / 53 m (AMSL)
21 Glidescope RS 110.30 MHz 10 nm / 19 km 200.81° 212.94° 3.00° 174 ft / 53 m (AMSL)

Popular Alternatives